sensor_id;sensor_type;location;lat;lon;timestamp;P1;durP1;ratioP1;P2;durP2;ratioP2
2748;SDS011;1382;52.142;11.618;2022-08-25T00:01:47;9.87;;;8.83;;
2748;SDS011;1382;52.142;11.618;2022-08-25T00:04:17;10.50;;;9.03;;
2748;SDS011;1382;52.142;11.618;2022-08-25T00:06:46;11.60;;;9.57;;
2748;SDS011;1382;52.142;11.618;2022-08-25T00:09:15;9.83;;;8.83;;
2748;SDS011;1382;52.142;11.618;2022-08-25T00:11:43;11.07;;;8.90;;
2748;SDS011;1382;52.142;11.618;2022-08-25T00:14:12;13.93;;;9.47;;
2748;SDS011;1382;52.142;11.618;2022-08-25T00:16:40;10.23;;;9.10;;
2748;SDS011;1382;52.142;11.618;2022-08-25T00:19:09;10.13;;;8.37;;
2748;SDS011;1382;52.142;11.618;2022-08-25T00:21:39;10.60;;;9.50;;
2748;SDS011;1382;52.142;11.618;2022-08-25T00:24:06;15.83;;;10.43;;
2748;SDS011;1382;52.142;11.618;2022-08-25T00:26:36;12.63;;;10.87;;
2748;SDS011;1382;52.142;11.618;2022-08-25T00:29:04;12.60;;;10.03;;
2748;SDS011;1382;52.142;11.618;2022-08-25T00:31:31;10.90;;;9.80;;
2748;SDS011;1382;52.142;11.618;2022-08-25T00:34:04;12.80;;;10.23;;
2748;SDS011;1382;52.142;11.618;2022-08-25T00:36:32;14.23;;;9.70;;
2748;SDS011;1382;52.142;11.618;2022-08-25T00:39:00;15.60;;;9.07;;
2748;SDS011;1382;52.142;11.618;2022-08-25T00:41:53;12.60;;;9.00;;
2748;SDS011;1382;52.142;11.618;2022-08-25T00:44:21;15.90;;;10.70;;
2748;SDS011;1382;52.142;11.618;2022-08-25T00:46:51;11.50;;;10.23;;
2748;SDS011;1382;52.142;11.618;2022-08-25T00:49:19;13.83;;;10.47;;
2748;SDS011;1382;52.142;11.618;2022-08-25T00:51:53;11.40;;;8.47;;
2748;SDS011;1382;52.142;11.618;2022-08-25T00:54:25;17.37;;;10.00;;
2748;SDS011;1382;52.142;11.618;2022-08-25T00:56:54;11.20;;;10.10;;
2748;SDS011;1382;52.142;11.618;2022-08-25T00:59:23;15.83;;;9.13;;
2748;SDS011;1382;52.142;11.618;2022-08-25T01:01:51;11.10;;;9.90;;
2748;SDS011;1382;52.142;11.618;2022-08-25T01:04:19;17.73;;;11.63;;
2748;SDS011;1382;52.142;11.618;2022-08-25T01:06:47;17.73;;;10.10;;
2748;SDS011;1382;52.142;11.618;2022-08-25T01:09:14;11.23;;;8.53;;
2748;SDS011;1382;52.142;11.618;2022-08-25T01:11:44;11.57;;;9.50;;
2748;SDS011;1382;52.142;11.618;2022-08-25T01:14:13;10.40;;;9.30;;
2748;SDS011;1382;52.142;11.618;2022-08-25T01:16:41;12.63;;;9.80;;
2748;SDS011;1382;52.142;11.618;2022-08-25T01:19:09;15.70;;;10.43;;
2748;SDS011;1382;52.142;11.618;2022-08-25T01:21:42;15.20;;;10.60;;
2748;SDS011;1382;52.142;11.618;2022-08-25T01:24:14;10.93;;;8.40;;
2748;SDS011;1382;52.142;11.618;2022-08-25T01:26:44;13.50;;;9.33;;
2748;SDS011;1382;52.142;11.618;2022-08-25T01:29:11;9.70;;;8.43;;
2748;SDS011;1382;52.142;11.618;2022-08-25T01:31:38;10.90;;;9.83;;
2748;SDS011;1382;52.142;11.618;2022-08-25T01:34:06;11.13;;;8.97;;
2748;SDS011;1382;52.142;11.618;2022-08-25T01:36:34;10.30;;;9.00;;
2748;SDS011;1382;52.142;11.618;2022-08-25T01:39:03;10.83;;;9.57;;
2748;SDS011;1382;52.142;11.618;2022-08-25T01:41:34;16.80;;;10.27;;
2748;SDS011;1382;52.142;11.618;2022-08-25T01:44:09;13.93;;;9.77;;
2748;SDS011;1382;52.142;11.618;2022-08-25T01:46:41;12.70;;;10.43;;
2748;SDS011;1382;52.142;11.618;2022-08-25T01:49:08;15.30;;;11.57;;
2748;SDS011;1382;52.142;11.618;2022-08-25T01:51:37;15.17;;;11.53;;
2748;SDS011;1382;52.142;11.618;2022-08-25T01:54:09;15.27;;;12.00;;
2748;SDS011;1382;52.142;11.618;2022-08-25T01:56:35;12.27;;;10.10;;
2748;SDS011;1382;52.142;11.618;2022-08-25T01:59:02;12.80;;;11.20;;
2748;SDS011;1382;52.142;11.618;2022-08-25T02:01:29;19.23;;;11.83;;
2748;SDS011;1382;52.142;11.618;2022-08-25T02:03:56;14.93;;;10.60;;
2748;SDS011;1382;52.142;11.618;2022-08-25T02:06:24;15.90;;;10.13;;
2748;SDS011;1382;52.142;11.618;2022-08-25T02:08:55;14.50;;;11.33;;
2748;SDS011;1382;52.142;11.618;2022-08-25T02:11:26;12.37;;;10.90;;
2748;SDS011;1382;52.142;11.618;2022-08-25T02:13:53;14.23;;;11.10;;
2748;SDS011;1382;52.142;11.618;2022-08-25T02:16:21;16.03;;;11.73;;
2748;SDS011;1382;52.142;11.618;2022-08-25T02:18:51;12.97;;;10.10;;
2748;SDS011;1382;52.142;11.618;2022-08-25T02:21:17;16.57;;;12.73;;
2748;SDS011;1382;52.142;11.618;2022-08-25T02:23:44;19.73;;;13.30;;
2748;SDS011;1382;52.142;11.618;2022-08-25T02:26:11;20.40;;;12.43;;
2748;SDS011;1382;52.142;11.618;2022-08-25T02:28:40;18.40;;;11.30;;
2748;SDS011;1382;52.142;11.618;2022-08-25T02:31:07;12.17;;;9.50;;
2748;SDS011;1382;52.142;11.618;2022-08-25T02:33:34;11.43;;;8.67;;
2748;SDS011;1382;52.142;11.618;2022-08-25T02:36:01;11.23;;;9.40;;
2748;SDS011;1382;52.142;11.618;2022-08-25T02:38:30;12.93;;;9.90;;
2748;SDS011;1382;52.142;11.618;2022-08-25T02:40:57;12.67;;;9.77;;
2748;SDS011;1382;52.142;11.618;2022-08-25T02:43:26;11.30;;;9.90;;
2748;SDS011;1382;52.142;11.618;2022-08-25T02:45:55;11.97;;;9.07;;
2748;SDS011;1382;52.142;11.618;2022-08-25T02:48:21;10.67;;;9.57;;
2748;SDS011;1382;52.142;11.618;2022-08-25T02:50:49;9.93;;;9.03;;
2748;SDS011;1382;52.142;11.618;2022-08-25T02:53:17;12.40;;;11.03;;
2748;SDS011;1382;52.142;11.618;2022-08-25T02:55:45;14.00;;;12.50;;
2748;SDS011;1382;52.142;11.618;2022-08-25T02:58:11;12.47;;;11.10;;
2748;SDS011;1382;52.142;11.618;2022-08-25T03:00:38;13.90;;;12.27;;
2748;SDS011;1382;52.142;11.618;2022-08-25T03:03:09;16.57;;;11.93;;
2748;SDS011;1382;52.142;11.618;2022-08-25T03:05:36;14.50;;;10.90;;
2748;SDS011;1382;52.142;11.618;2022-08-25T03:08:03;14.10;;;10.97;;
2748;SDS011;1382;52.142;11.618;2022-08-25T03:10:32;15.33;;;12.00;;
2748;SDS011;1382;52.142;11.618;2022-08-25T03:12:58;19.70;;;11.90;;
2748;SDS011;1382;52.142;11.618;2022-08-25T03:15:25;16.87;;;13.33;;
2748;SDS011;1382;52.142;11.618;2022-08-25T03:17:55;21.87;;;15.83;;
2748;SDS011;1382;52.142;11.618;2022-08-25T03:20:26;18.50;;;14.07;;
2748;SDS011;1382;52.142;11.618;2022-08-25T03:22:53;16.77;;;14.83;;
2748;SDS011;1382;52.142;11.618;2022-08-25T03:25:19;18.67;;;13.83;;
2748;SDS011;1382;52.142;11.618;2022-08-25T03:27:49;15.00;;;12.80;;
2748;SDS011;1382;52.142;11.618;2022-08-25T03:30:16;16.43;;;14.00;;
2748;SDS011;1382;52.142;11.618;2022-08-25T03:32:43;14.40;;;9.97;;
2748;SDS011;1382;52.142;11.618;2022-08-25T03:35:10;14.20;;;12.30;;
2748;SDS011;1382;52.142;11.618;2022-08-25T03:37:39;15.60;;;11.87;;
2748;SDS011;1382;52.142;11.618;2022-08-25T03:40:06;13.87;;;12.37;;
2748;SDS011;1382;52.142;11.618;2022-08-25T03:42:42;17.33;;;13.57;;
2748;SDS011;1382;52.142;11.618;2022-08-25T03:45:10;12.77;;;11.47;;
2748;SDS011;1382;52.142;11.618;2022-08-25T03:47:38;15.03;;;12.47;;
2748;SDS011;1382;52.142;11.618;2022-08-25T03:50:07;18.43;;;13.93;;
2748;SDS011;1382;52.142;11.618;2022-08-25T03:52:35;12.90;;;10.93;;
2748;SDS011;1382;52.142;11.618;2022-08-25T03:55:10;18.93;;;14.93;;
2748;SDS011;1382;52.142;11.618;2022-08-25T03:57:38;15.53;;;11.30;;
2748;SDS011;1382;52.142;11.618;2022-08-25T04:00:06;13.23;;;11.80;;
2748;SDS011;1382;52.142;11.618;2022-08-25T04:02:35;16.50;;;13.67;;
2748;SDS011;1382;52.142;11.618;2022-08-25T04:05:02;15.67;;;10.40;;
2748;SDS011;1382;52.142;11.618;2022-08-25T04:07:29;21.70;;;13.03;;
2748;SDS011;1382;52.142;11.618;2022-08-25T04:09:55;10.73;;;8.67;;
2748;SDS011;1382;52.142;11.618;2022-08-25T04:12:23;16.13;;;13.67;;
2748;SDS011;1382;52.142;11.618;2022-08-25T04:14:50;15.60;;;13.93;;
2748;SDS011;1382;52.142;11.618;2022-08-25T04:17:17;17.20;;;13.40;;
2748;SDS011;1382;52.142;11.618;2022-08-25T04:19:44;14.13;;;12.63;;
2748;SDS011;1382;52.142;11.618;2022-08-25T04:22:11;16.87;;;11.60;;
2748;SDS011;1382;52.142;11.618;2022-08-25T04:24:38;19.30;;;14.63;;
2748;SDS011;1382;52.142;11.618;2022-08-25T04:27:05;20.00;;;14.43;;
2748;SDS011;1382;52.142;11.618;2022-08-25T04:29:33;20.13;;;15.47;;
2748;SDS011;1382;52.142;11.618;2022-08-25T04:32:00;13.00;;;11.40;;
2748;SDS011;1382;52.142;11.618;2022-08-25T04:34:27;13.93;;;10.70;;
2748;SDS011;1382;52.142;11.618;2022-08-25T04:36:56;15.30;;;12.27;;
2748;SDS011;1382;52.142;11.618;2022-08-25T04:39:24;14.33;;;12.63;;
2748;SDS011;1382;52.142;11.618;2022-08-25T04:41:50;17.20;;;13.53;;
2748;SDS011;1382;52.142;11.618;2022-08-25T04:44:17;21.03;;;15.60;;
2748;SDS011;1382;52.142;11.618;2022-08-25T04:46:45;15.83;;;14.20;;
2748;SDS011;1382;52.142;11.618;2022-08-25T04:49:12;18.23;;;14.83;;
2748;SDS011;1382;52.142;11.618;2022-08-25T04:51:39;18.83;;;16.67;;
2748;SDS011;1382;52.142;11.618;2022-08-25T04:54:07;20.27;;;15.60;;
2748;SDS011;1382;52.142;11.618;2022-08-25T04:56:36;19.30;;;15.23;;
2748;SDS011;1382;52.142;11.618;2022-08-25T04:59:05;16.57;;;14.10;;
2748;SDS011;1382;52.142;11.618;2022-08-25T05:01:33;20.53;;;14.53;;
2748;SDS011;1382;52.142;11.618;2022-08-25T05:04:03;20.93;;;15.20;;
2748;SDS011;1382;52.142;11.618;2022-08-25T05:06:32;20.77;;;15.10;;
2748;SDS011;1382;52.142;11.618;2022-08-25T05:08:59;24.47;;;16.20;;
2748;SDS011;1382;52.142;11.618;2022-08-25T05:11:27;22.67;;;15.57;;
2748;SDS011;1382;52.142;11.618;2022-08-25T05:13:54;21.93;;;15.43;;
2748;SDS011;1382;52.142;11.618;2022-08-25T05:16:23;16.90;;;12.80;;
2748;SDS011;1382;52.142;11.618;2022-08-25T05:18:51;17.13;;;11.60;;
2748;SDS011;1382;52.142;11.618;2022-08-25T05:21:20;27.10;;;16.80;;
2748;SDS011;1382;52.142;11.618;2022-08-25T05:23:48;17.43;;;13.57;;
2748;SDS011;1382;52.142;11.618;2022-08-25T05:26:17;23.17;;;16.83;;
2748;SDS011;1382;52.142;11.618;2022-08-25T05:28:46;18.63;;;13.17;;
2748;SDS011;1382;52.142;11.618;2022-08-25T05:31:15;20.03;;;14.07;;
2748;SDS011;1382;52.142;11.618;2022-08-25T05:33:42;20.37;;;15.53;;
2748;SDS011;1382;52.142;11.618;2022-08-25T05:36:10;24.20;;;15.27;;
2748;SDS011;1382;52.142;11.618;2022-08-25T05:38:39;19.67;;;14.87;;
2748;SDS011;1382;52.142;11.618;2022-08-25T05:41:08;28.90;;;18.27;;
2748;SDS011;1382;52.142;11.618;2022-08-25T05:43:37;23.13;;;16.70;;
2748;SDS011;1382;52.142;11.618;2022-08-25T05:46:05;20.83;;;14.20;;
2748;SDS011;1382;52.142;11.618;2022-08-25T05:48:32;19.97;;;15.60;;
2748;SDS011;1382;52.142;11.618;2022-08-25T05:51:00;20.20;;;14.80;;
2748;SDS011;1382;52.142;11.618;2022-08-25T05:53:29;17.87;;;14.13;;
2748;SDS011;1382;52.142;11.618;2022-08-25T05:56:00;20.77;;;14.00;;
2748;SDS011;1382;52.142;11.618;2022-08-25T05:58:28;19.03;;;14.63;;
2748;SDS011;1382;52.142;11.618;2022-08-25T06:00:56;23.53;;;18.17;;
2748;SDS011;1382;52.142;11.618;2022-08-25T06:03:24;25.10;;;17.17;;
2748;SDS011;1382;52.142;11.618;2022-08-25T06:05:51;24.97;;;16.40;;
2748;SDS011;1382;52.142;11.618;2022-08-25T06:08:18;22.90;;;16.00;;
2748;SDS011;1382;52.142;11.618;2022-08-25T06:10:45;25.63;;;17.50;;
2748;SDS011;1382;52.142;11.618;2022-08-25T06:13:18;23.80;;;15.60;;
2748;SDS011;1382;52.142;11.618;2022-08-25T06:15:55;21.27;;;15.90;;
2748;SDS011;1382;52.142;11.618;2022-08-25T06:18:22;21.90;;;15.87;;
2748;SDS011;1382;52.142;11.618;2022-08-25T06:20:49;22.43;;;17.77;;
2748;SDS011;1382;52.142;11.618;2022-08-25T06:23:16;23.73;;;15.17;;
2748;SDS011;1382;52.142;11.618;2022-08-25T06:25:43;24.73;;;16.67;;
2748;SDS011;1382;52.142;11.618;2022-08-25T06:28:14;21.33;;;15.50;;
2748;SDS011;1382;52.142;11.618;2022-08-25T06:30:42;24.63;;;16.60;;
2748;SDS011;1382;52.142;11.618;2022-08-25T06:33:09;18.30;;;14.87;;
2748;SDS011;1382;52.142;11.618;2022-08-25T06:35:39;20.20;;;16.47;;
2748;SDS011;1382;52.142;11.618;2022-08-25T06:38:06;22.03;;;17.13;;
2748;SDS011;1382;52.142;11.618;2022-08-25T06:40:33;24.93;;;16.97;;
2748;SDS011;1382;52.142;11.618;2022-08-25T06:43:00;22.70;;;15.60;;
2748;SDS011;1382;52.142;11.618;2022-08-25T06:45:27;21.07;;;15.70;;
2748;SDS011;1382;52.142;11.618;2022-08-25T06:47:57;23.20;;;17.43;;
2748;SDS011;1382;52.142;11.618;2022-08-25T06:50:24;22.27;;;16.30;;
2748;SDS011;1382;52.142;11.618;2022-08-25T06:52:53;23.63;;;16.17;;
2748;SDS011;1382;52.142;11.618;2022-08-25T06:55:20;20.33;;;16.07;;
2748;SDS011;1382;52.142;11.618;2022-08-25T06:57:47;23.20;;;16.23;;
2748;SDS011;1382;52.142;11.618;2022-08-25T07:00:20;24.70;;;17.27;;
2748;SDS011;1382;52.142;11.618;2022-08-25T07:02:58;24.43;;;16.63;;
2748;SDS011;1382;52.142;11.618;2022-08-25T07:05:25;20.90;;;16.17;;
2748;SDS011;1382;52.142;11.618;2022-08-25T07:08:08;21.70;;;16.73;;
2748;SDS011;1382;52.142;11.618;2022-08-25T07:10:35;24.30;;;18.20;;
2748;SDS011;1382;52.142;11.618;2022-08-25T07:13:01;23.00;;;17.60;;
2748;SDS011;1382;52.142;11.618;2022-08-25T07:15:28;22.40;;;18.30;;
2748;SDS011;1382;52.142;11.618;2022-08-25T07:17:56;33.93;;;19.60;;
2748;SDS011;1382;52.142;11.618;2022-08-25T07:20:24;21.47;;;15.97;;
2748;SDS011;1382;52.142;11.618;2022-08-25T07:22:56;22.03;;;17.40;;
2748;SDS011;1382;52.142;11.618;2022-08-25T07:25:22;25.63;;;17.37;;
2748;SDS011;1382;52.142;11.618;2022-08-25T07:27:49;21.27;;;16.57;;
2748;SDS011;1382;52.142;11.618;2022-08-25T07:30:22;26.60;;;17.93;;
2748;SDS011;1382;52.142;11.618;2022-08-25T07:32:49;31.07;;;19.53;;
2748;SDS011;1382;52.142;11.618;2022-08-25T07:35:21;31.37;;;19.67;;
2748;SDS011;1382;52.142;11.618;2022-08-25T07:37:51;26.20;;;18.47;;
2748;SDS011;1382;52.142;11.618;2022-08-25T07:40:24;26.40;;;20.27;;
2748;SDS011;1382;52.142;11.618;2022-08-25T07:42:54;28.97;;;19.60;;
2748;SDS011;1382;52.142;11.618;2022-08-25T07:45:22;26.93;;;19.43;;
2748;SDS011;1382;52.142;11.618;2022-08-25T07:47:50;23.40;;;18.03;;
2748;SDS011;1382;52.142;11.618;2022-08-25T07:50:17;25.10;;;17.27;;
2748;SDS011;1382;52.142;11.618;2022-08-25T07:52:46;25.37;;;18.57;;
2748;SDS011;1382;52.142;11.618;2022-08-25T07:55:20;24.00;;;15.37;;
2748;SDS011;1382;52.142;11.618;2022-08-25T07:57:48;25.73;;;18.60;;
2748;SDS011;1382;52.142;11.618;2022-08-25T08:00:27;24.60;;;19.73;;
2748;SDS011;1382;52.142;11.618;2022-08-25T08:02:54;22.33;;;15.00;;
2748;SDS011;1382;52.142;11.618;2022-08-25T08:05:22;23.20;;;16.80;;
2748;SDS011;1382;52.142;11.618;2022-08-25T08:07:51;21.47;;;14.20;;
2748;SDS011;1382;52.142;11.618;2022-08-25T08:10:18;19.13;;;13.57;;
2748;SDS011;1382;52.142;11.618;2022-08-25T08:13:06;30.53;;;16.97;;
2748;SDS011;1382;52.142;11.618;2022-08-25T08:15:43;19.33;;;16.97;;
2748;SDS011;1382;52.142;11.618;2022-08-25T08:18:10;22.67;;;16.90;;
2748;SDS011;1382;52.142;11.618;2022-08-25T08:20:37;23.77;;;17.10;;
2748;SDS011;1382;52.142;11.618;2022-08-25T08:23:09;19.53;;;14.00;;
2748;SDS011;1382;52.142;11.618;2022-08-25T08:25:36;21.67;;;15.17;;
2748;SDS011;1382;52.142;11.618;2022-08-25T08:28:05;20.23;;;14.67;;
2748;SDS011;1382;52.142;11.618;2022-08-25T08:30:32;21.00;;;15.10;;
2748;SDS011;1382;52.142;11.618;2022-08-25T08:33:00;25.70;;;13.80;;
2748;SDS011;1382;52.142;11.618;2022-08-25T08:35:37;16.00;;;12.10;;
2748;SDS011;1382;52.142;11.618;2022-08-25T08:38:04;19.40;;;13.73;;
2748;SDS011;1382;52.142;11.618;2022-08-25T08:40:44;17.20;;;12.43;;
2748;SDS011;1382;52.142;11.618;2022-08-25T08:43:25;33.40;;;15.63;;
2748;SDS011;1382;52.142;11.618;2022-08-25T08:45:58;13.63;;;11.90;;
2748;SDS011;1382;52.142;11.618;2022-08-25T08:48:30;17.07;;;11.00;;
2748;SDS011;1382;52.142;11.618;2022-08-25T08:51:12;19.47;;;12.00;;
2748;SDS011;1382;52.142;11.618;2022-08-25T08:53:45;25.80;;;14.37;;
2748;SDS011;1382;52.142;11.618;2022-08-25T08:56:19;14.40;;;11.50;;
2748;SDS011;1382;52.142;11.618;2022-08-25T08:58:49;18.40;;;13.50;;
2748;SDS011;1382;52.142;11.618;2022-08-25T09:01:22;16.00;;;11.90;;
2748;SDS011;1382;52.142;11.618;2022-08-25T09:03:53;14.13;;;11.17;;
2748;SDS011;1382;52.142;11.618;2022-08-25T09:06:25;21.40;;;10.90;;
2748;SDS011;1382;52.142;11.618;2022-08-25T09:08:56;15.20;;;10.63;;
2748;SDS011;1382;52.142;11.618;2022-08-25T09:11:42;15.30;;;10.57;;
2748;SDS011;1382;52.142;11.618;2022-08-25T09:14:21;16.70;;;10.83;;
2748;SDS011;1382;52.142;11.618;2022-08-25T09:17:05;14.20;;;11.13;;
2748;SDS011;1382;52.142;11.618;2022-08-25T09:19:41;19.83;;;13.90;;
2748;SDS011;1382;52.142;11.618;2022-08-25T09:22:17;15.50;;;12.17;;
2748;SDS011;1382;52.142;11.618;2022-08-25T09:25:01;12.63;;;10.20;;
2748;SDS011;1382;52.142;11.618;2022-08-25T09:27:39;20.83;;;11.70;;
2748;SDS011;1382;52.142;11.618;2022-08-25T09:30:12;15.07;;;12.27;;
2748;SDS011;1382;52.142;11.618;2022-08-25T09:32:42;13.00;;;11.20;;
2748;SDS011;1382;52.142;11.618;2022-08-25T09:35:18;19.27;;;12.47;;
2748;SDS011;1382;52.142;11.618;2022-08-25T09:37:56;17.40;;;11.17;;
2748;SDS011;1382;52.142;11.618;2022-08-25T09:40:24;17.13;;;13.20;;
2748;SDS011;1382;52.142;11.618;2022-08-25T09:42:55;19.87;;;10.93;;
2748;SDS011;1382;52.142;11.618;2022-08-25T09:45:31;14.90;;;11.10;;
2748;SDS011;1382;52.142;11.618;2022-08-25T09:48:01;13.33;;;10.70;;
2748;SDS011;1382;52.142;11.618;2022-08-25T09:50:47;16.20;;;10.90;;
2748;SDS011;1382;52.142;11.618;2022-08-25T09:53:16;14.43;;;11.87;;
2748;SDS011;1382;52.142;11.618;2022-08-25T09:55:51;20.60;;;11.93;;
2748;SDS011;1382;52.142;11.618;2022-08-25T09:58:26;22.60;;;12.27;;
2748;SDS011;1382;52.142;11.618;2022-08-25T10:01:01;13.07;;;11.03;;
2748;SDS011;1382;52.142;11.618;2022-08-25T10:03:36;14.20;;;11.00;;
2748;SDS011;1382;52.142;11.618;2022-08-25T10:06:04;13.90;;;10.67;;
2748;SDS011;1382;52.142;11.618;2022-08-25T10:08:39;14.57;;;9.53;;
2748;SDS011;1382;52.142;11.618;2022-08-25T10:11:28;14.97;;;10.87;;
2748;SDS011;1382;52.142;11.618;2022-08-25T10:14:01;17.40;;;9.90;;
2748;SDS011;1382;52.142;11.618;2022-08-25T10:16:31;13.17;;;10.27;;
2748;SDS011;1382;52.142;11.618;2022-08-25T10:19:03;16.47;;;9.57;;
2748;SDS011;1382;52.142;11.618;2022-08-25T10:21:32;11.93;;;10.23;;
2748;SDS011;1382;52.142;11.618;2022-08-25T10:24:00;20.77;;;11.67;;
2748;SDS011;1382;52.142;11.618;2022-08-25T10:26:29;15.40;;;10.10;;
2748;SDS011;1382;52.142;11.618;2022-08-25T10:29:11;16.17;;;9.40;;
2748;SDS011;1382;52.142;11.618;2022-08-25T10:31:52;11.37;;;9.50;;
2748;SDS011;1382;52.142;11.618;2022-08-25T10:34:24;16.90;;;8.60;;
2748;SDS011;1382;52.142;11.618;2022-08-25T10:37:04;14.00;;;9.60;;
2748;SDS011;1382;52.142;11.618;2022-08-25T10:39:41;13.33;;;10.43;;
2748;SDS011;1382;52.142;11.618;2022-08-25T10:42:19;17.30;;;9.47;;
2748;SDS011;1382;52.142;11.618;2022-08-25T10:45:00;15.50;;;9.63;;
2748;SDS011;1382;52.142;11.618;2022-08-25T10:47:49;12.20;;;9.47;;
2748;SDS011;1382;52.142;11.618;2022-08-25T10:50:35;11.37;;;9.63;;
2748;SDS011;1382;52.142;11.618;2022-08-25T10:53:18;9.77;;;8.77;;
2748;SDS011;1382;52.142;11.618;2022-08-25T10:56:02;12.20;;;8.70;;
2748;SDS011;1382;52.142;11.618;2022-08-25T10:58:49;13.10;;;9.80;;
2748;SDS011;1382;52.142;11.618;2022-08-25T11:01:28;17.80;;;9.97;;
2748;SDS011;1382;52.142;11.618;2022-08-25T11:04:11;13.10;;;10.87;;
2748;SDS011;1382;52.142;11.618;2022-08-25T11:06:41;10.67;;;9.30;;
2748;SDS011;1382;52.142;11.618;2022-08-25T11:09:20;10.70;;;9.70;;
2748;SDS011;1382;52.142;11.618;2022-08-25T11:11:54;13.93;;;9.90;;
2748;SDS011;1382;52.142;11.618;2022-08-25T11:14:24;12.63;;;9.37;;
2748;SDS011;1382;52.142;11.618;2022-08-25T11:17:02;11.30;;;9.43;;
2748;SDS011;1382;52.142;11.618;2022-08-25T11:19:33;12.33;;;10.20;;
2748;SDS011;1382;52.142;11.618;2022-08-25T11:22:03;13.00;;;9.90;;
2748;SDS011;1382;52.142;11.618;2022-08-25T11:24:40;13.30;;;10.57;;
2748;SDS011;1382;52.142;11.618;2022-08-25T11:27:20;17.40;;;10.97;;
2748;SDS011;1382;52.142;11.618;2022-08-25T11:29:52;17.70;;;10.87;;
2748;SDS011;1382;52.142;11.618;2022-08-25T11:32:27;11.30;;;9.53;;
2748;SDS011;1382;52.142;11.618;2022-08-25T11:34:54;14.20;;;10.70;;
2748;SDS011;1382;52.142;11.618;2022-08-25T11:37:22;12.57;;;9.80;;
2748;SDS011;1382;52.142;11.618;2022-08-25T11:40:05;14.47;;;10.80;;
2748;SDS011;1382;52.142;11.618;2022-08-25T11:42:50;11.17;;;9.67;;
2748;SDS011;1382;52.142;11.618;2022-08-25T11:48:27;11.80;;;9.47;;
2748;SDS011;1382;52.142;11.618;2022-08-25T11:51:03;15.30;;;10.23;;
2748;SDS011;1382;52.142;11.618;2022-08-25T11:53:32;11.03;;;8.80;;
2748;SDS011;1382;52.142;11.618;2022-08-25T11:56:03;13.00;;;9.50;;
2748;SDS011;1382;52.142;11.618;2022-08-25T11:58:36;18.77;;;10.10;;
2748;SDS011;1382;52.142;11.618;2022-08-25T12:04:36;11.00;;;9.90;;
2748;SDS011;1382;52.142;11.618;2022-08-25T12:07:15;16.60;;;10.40;;
2748;SDS011;1382;52.142;11.618;2022-08-25T12:10:11;11.40;;;9.30;;
2748;SDS011;1382;52.142;11.618;2022-08-25T12:21:55;13.90;;;10.83;;
2748;SDS011;1382;52.142;11.618;2022-08-25T12:24:34;11.07;;;9.87;;
2748;SDS011;1382;52.142;11.618;2022-08-25T12:27:19;12.30;;;10.63;;
2748;SDS011;1382;52.142;11.618;2022-08-25T12:29:52;11.97;;;10.23;;
2748;SDS011;1382;52.142;11.618;2022-08-25T12:32:29;14.30;;;10.43;;
2748;SDS011;1382;52.142;11.618;2022-08-25T12:35:15;15.73;;;9.93;;
2748;SDS011;1382;52.142;11.618;2022-08-25T12:37:52;11.30;;;10.03;;
2748;SDS011;1382;52.142;11.618;2022-08-25T12:40:32;18.33;;;11.20;;
2748;SDS011;1382;52.142;11.618;2022-08-25T12:43:03;14.53;;;10.40;;
2748;SDS011;1382;52.142;11.618;2022-08-25T12:45:50;16.93;;;10.70;;
2748;SDS011;1382;52.142;11.618;2022-08-25T12:48:39;24.43;;;11.53;;
2748;SDS011;1382;52.142;11.618;2022-08-25T12:51:14;18.53;;;10.30;;
2748;SDS011;1382;52.142;11.618;2022-08-25T12:53:45;14.30;;;10.50;;
2748;SDS011;1382;52.142;11.618;2022-08-25T12:56:24;12.83;;;10.90;;
2748;SDS011;1382;52.142;11.618;2022-08-25T12:59:00;15.57;;;9.90;;
2748;SDS011;1382;52.142;11.618;2022-08-25T13:01:39;12.37;;;11.07;;
2748;SDS011;1382;52.142;11.618;2022-08-25T13:04:26;12.00;;;10.77;;
2748;SDS011;1382;52.142;11.618;2022-08-25T13:07:17;13.10;;;11.07;;
2748;SDS011;1382;52.142;11.618;2022-08-25T13:09:59;15.40;;;10.50;;
2748;SDS011;1382;52.142;11.618;2022-08-25T13:12:46;10.93;;;8.40;;
2748;SDS011;1382;52.142;11.618;2022-08-25T13:15:32;13.03;;;9.90;;
2748;SDS011;1382;52.142;11.618;2022-08-25T13:18:15;19.00;;;9.50;;
2748;SDS011;1382;52.142;11.618;2022-08-25T13:20:45;13.00;;;9.17;;
2748;SDS011;1382;52.142;11.618;2022-08-25T13:23:17;12.43;;;10.13;;
2748;SDS011;1382;52.142;11.618;2022-08-25T13:25:51;14.30;;;10.03;;
2748;SDS011;1382;52.142;11.618;2022-08-25T13:28:25;10.53;;;9.53;;
2748;SDS011;1382;52.142;11.618;2022-08-25T13:30:55;18.43;;;11.63;;
2748;SDS011;1382;52.142;11.618;2022-08-25T13:33:27;11.70;;;9.50;;
2748;SDS011;1382;52.142;11.618;2022-08-25T13:35:55;15.07;;;12.07;;
2748;SDS011;1382;52.142;11.618;2022-08-25T13:38:25;12.50;;;10.00;;
2748;SDS011;1382;52.142;11.618;2022-08-25T13:40:54;14.43;;;9.60;;
2748;SDS011;1382;52.142;11.618;2022-08-25T13:43:34;14.13;;;10.90;;
2748;SDS011;1382;52.142;11.618;2022-08-25T13:46:03;11.37;;;9.80;;
2748;SDS011;1382;52.142;11.618;2022-08-25T13:48:31;14.10;;;10.17;;
2748;SDS011;1382;52.142;11.618;2022-08-25T13:51:07;18.73;;;10.27;;
2748;SDS011;1382;52.142;11.618;2022-08-25T13:53:52;15.13;;;9.47;;
2748;SDS011;1382;52.142;11.618;2022-08-25T13:56:27;17.30;;;9.10;;
2748;SDS011;1382;52.142;11.618;2022-08-25T13:59:06;15.40;;;9.87;;
2748;SDS011;1382;52.142;11.618;2022-08-25T14:01:47;15.83;;;10.80;;
2748;SDS011;1382;52.142;11.618;2022-08-25T14:04:20;15.00;;;9.83;;
2748;SDS011;1382;52.142;11.618;2022-08-25T14:07:03;10.47;;;8.73;;
2748;SDS011;1382;52.142;11.618;2022-08-25T14:09:51;20.27;;;8.90;;
2748;SDS011;1382;52.142;11.618;2022-08-25T14:12:26;15.70;;;9.13;;
2748;SDS011;1382;52.142;11.618;2022-08-25T14:15:00;13.27;;;9.27;;
2748;SDS011;1382;52.142;11.618;2022-08-25T14:17:30;18.33;;;8.73;;
2748;SDS011;1382;52.142;11.618;2022-08-25T14:20:06;13.83;;;8.57;;
2748;SDS011;1382;52.142;11.618;2022-08-25T14:22:43;18.83;;;10.10;;
2748;SDS011;1382;52.142;11.618;2022-08-25T14:25:11;16.93;;;8.13;;
2748;SDS011;1382;52.142;11.618;2022-08-25T14:27:40;13.87;;;8.90;;
2748;SDS011;1382;52.142;11.618;2022-08-25T14:30:27;11.67;;;9.03;;
2748;SDS011;1382;52.142;11.618;2022-08-25T14:32:55;18.17;;;9.57;;
2748;SDS011;1382;52.142;11.618;2022-08-25T14:35:22;13.90;;;10.40;;
2748;SDS011;1382;52.142;11.618;2022-08-25T14:37:49;14.80;;;9.80;;
2748;SDS011;1382;52.142;11.618;2022-08-25T14:40:17;14.93;;;10.27;;
2748;SDS011;1382;52.142;11.618;2022-08-25T14:42:45;14.37;;;8.90;;
2748;SDS011;1382;52.142;11.618;2022-08-25T14:45:12;11.23;;;8.80;;
2748;SDS011;1382;52.142;11.618;2022-08-25T14:47:39;13.70;;;7.97;;
2748;SDS011;1382;52.142;11.618;2022-08-25T14:50:06;17.83;;;9.57;;
2748;SDS011;1382;52.142;11.618;2022-08-25T14:52:33;15.67;;;9.23;;
2748;SDS011;1382;52.142;11.618;2022-08-25T14:55:00;13.73;;;9.10;;
2748;SDS011;1382;52.142;11.618;2022-08-25T14:57:28;15.37;;;9.83;;
2748;SDS011;1382;52.142;11.618;2022-08-25T14:59:55;11.00;;;9.00;;
2748;SDS011;1382;52.142;11.618;2022-08-25T15:02:22;12.93;;;9.50;;
2748;SDS011;1382;52.142;11.618;2022-08-25T15:04:56;14.80;;;10.27;;
2748;SDS011;1382;52.142;11.618;2022-08-25T15:07:26;13.40;;;9.00;;
2748;SDS011;1382;52.142;11.618;2022-08-25T15:09:54;12.27;;;8.90;;
2748;SDS011;1382;52.142;11.618;2022-08-25T15:12:21;19.10;;;10.00;;
2748;SDS011;1382;52.142;11.618;2022-08-25T15:15:09;15.33;;;9.70;;
2748;SDS011;1382;52.142;11.618;2022-08-25T15:17:38;15.77;;;10.40;;
2748;SDS011;1382;52.142;11.618;2022-08-25T15:20:10;12.47;;;10.00;;